sensor_id;sensor_type;location;lat;lon;timestamp;P1;durP1;ratioP1;P2;durP2;ratioP2
72115;SDS011;59991;52.140;5.428;2023-01-24T00:00:19;18.63;;;15.52;;
72115;SDS011;59991;52.140;5.428;2023-01-24T00:01:09;17.15;;;13.52;;
72115;SDS011;59991;52.140;5.428;2023-01-24T00:01:43;18.60;;;14.15;;
72115;SDS011;59991;52.140;5.428;2023-01-24T00:02:15;17.33;;;14.15;;
72115;SDS011;59991;52.140;5.428;2023-01-24T00:02:46;17.77;;;15.63;;
72115;SDS011;59991;52.140;5.428;2023-01-24T00:03:19;19.45;;;16.63;;
72115;SDS011;59991;52.140;5.428;2023-01-24T00:03:53;16.95;;;14.93;;
72115;SDS011;59991;52.140;5.428;2023-01-24T00:04:25;16.70;;;14.27;;
72115;SDS011;59991;52.140;5.428;2023-01-24T00:04:56;17.80;;;13.80;;
72115;SDS011;59991;52.140;5.428;2023-01-24T00:05:28;17.77;;;14.50;;
72115;SDS011;59991;52.140;5.428;2023-01-24T00:06:00;17.13;;;15.32;;
72115;SDS011;59991;52.140;5.428;2023-01-24T00:06:31;16.13;;;14.40;;
72115;SDS011;59991;52.140;5.428;2023-01-24T00:07:03;17.20;;;14.43;;
72115;SDS011;59991;52.140;5.428;2023-01-24T00:07:35;17.30;;;14.25;;
72115;SDS011;59991;52.140;5.428;2023-01-24T00:08:06;18.83;;;15.80;;
72115;SDS011;59991;52.140;5.428;2023-01-24T00:08:38;18.67;;;15.13;;
72115;SDS011;59991;52.140;5.428;2023-01-24T00:09:10;19.33;;;15.25;;
72115;SDS011;59991;52.140;5.428;2023-01-24T00:09:42;19.27;;;14.83;;
72115;SDS011;59991;52.140;5.428;2023-01-24T00:10:13;17.05;;;14.00;;
72115;SDS011;59991;52.140;5.428;2023-01-24T00:10:45;16.38;;;14.70;;
72115;SDS011;59991;52.140;5.428;2023-01-24T00:11:17;16.45;;;14.07;;
72115;SDS011;59991;52.140;5.428;2023-01-24T00:11:49;17.10;;;15.02;;
72115;SDS011;59991;52.140;5.428;2023-01-24T00:12:21;16.92;;;13.75;;
72115;SDS011;59991;52.140;5.428;2023-01-24T00:12:53;16.27;;;14.48;;
72115;SDS011;59991;52.140;5.428;2023-01-24T00:13:24;17.98;;;15.10;;
72115;SDS011;59991;52.140;5.428;2023-01-24T00:13:56;16.77;;;13.57;;
72115;SDS011;59991;52.140;5.428;2023-01-24T00:14:27;15.55;;;13.77;;
72115;SDS011;59991;52.140;5.428;2023-01-24T00:14:59;15.50;;;13.40;;
72115;SDS011;59991;52.140;5.428;2023-01-24T00:15:30;17.27;;;15.13;;
72115;SDS011;59991;52.140;5.428;2023-01-24T00:16:05;16.52;;;14.45;;
72115;SDS011;59991;52.140;5.428;2023-01-24T00:16:48;16.70;;;13.95;;
72115;SDS011;59991;52.140;5.428;2023-01-24T00:17:19;18.20;;;14.95;;
72115;SDS011;59991;52.140;5.428;2023-01-24T00:17:53;17.13;;;14.27;;
72115;SDS011;59991;52.140;5.428;2023-01-24T00:18:24;16.80;;;13.75;;
72115;SDS011;59991;52.140;5.428;2023-01-24T00:18:56;16.88;;;14.68;;
72115;SDS011;59991;52.140;5.428;2023-01-24T00:19:27;18.35;;;15.30;;
72115;SDS011;59991;52.140;5.428;2023-01-24T00:19:59;17.83;;;14.40;;
72115;SDS011;59991;52.140;5.428;2023-01-24T00:20:31;17.40;;;14.67;;
72115;SDS011;59991;52.140;5.428;2023-01-24T00:21:04;18.17;;;14.82;;
72115;SDS011;59991;52.140;5.428;2023-01-24T00:21:43;16.08;;;14.07;;
72115;SDS011;59991;52.140;5.428;2023-01-24T00:22:14;16.88;;;15.00;;
72115;SDS011;59991;52.140;5.428;2023-01-24T00:22:46;17.45;;;14.52;;
72115;SDS011;59991;52.140;5.428;2023-01-24T00:23:18;17.52;;;14.45;;
72115;SDS011;59991;52.140;5.428;2023-01-24T00:23:50;14.73;;;12.88;;
72115;SDS011;59991;52.140;5.428;2023-01-24T00:24:23;16.75;;;14.25;;
72115;SDS011;59991;52.140;5.428;2023-01-24T00:24:57;16.88;;;15.18;;
72115;SDS011;59991;52.140;5.428;2023-01-24T00:25:29;15.90;;;14.07;;
72115;SDS011;59991;52.140;5.428;2023-01-24T00:26:00;18.30;;;14.70;;
72115;SDS011;59991;52.140;5.428;2023-01-24T00:26:32;20.15;;;16.45;;
72115;SDS011;59991;52.140;5.428;2023-01-24T00:27:04;17.55;;;15.27;;
72115;SDS011;59991;52.140;5.428;2023-01-24T00:27:35;16.13;;;14.48;;
72115;SDS011;59991;52.140;5.428;2023-01-24T00:28:07;19.42;;;16.10;;
72115;SDS011;59991;52.140;5.428;2023-01-24T00:28:40;18.27;;;15.13;;
72115;SDS011;59991;52.140;5.428;2023-01-24T00:29:15;17.67;;;15.23;;
72115;SDS011;59991;52.140;5.428;2023-01-24T00:29:46;17.42;;;14.60;;
72115;SDS011;59991;52.140;5.428;2023-01-24T00:30:19;18.08;;;14.55;;
72115;SDS011;59991;52.140;5.428;2023-01-24T00:30:50;18.42;;;14.40;;
72115;SDS011;59991;52.140;5.428;2023-01-24T00:31:22;19.43;;;15.40;;
72115;SDS011;59991;52.140;5.428;2023-01-24T00:31:54;17.92;;;14.10;;
72115;SDS011;59991;52.140;5.428;2023-01-24T00:32:25;17.83;;;15.70;;
72115;SDS011;59991;52.140;5.428;2023-01-24T00:32:57;17.70;;;15.70;;
72115;SDS011;59991;52.140;5.428;2023-01-24T00:33:29;18.48;;;16.55;;
72115;SDS011;59991;52.140;5.428;2023-01-24T00:34:01;16.55;;;14.65;;
72115;SDS011;59991;52.140;5.428;2023-01-24T00:34:32;19.52;;;16.33;;
72115;SDS011;59991;52.140;5.428;2023-01-24T00:35:04;17.83;;;15.40;;
72115;SDS011;59991;52.140;5.428;2023-01-24T00:35:36;18.45;;;15.25;;
72115;SDS011;59991;52.140;5.428;2023-01-24T00:36:08;18.38;;;15.02;;
72115;SDS011;59991;52.140;5.428;2023-01-24T00:36:40;18.13;;;15.40;;
72115;SDS011;59991;52.140;5.428;2023-01-24T00:37:12;18.73;;;16.73;;
72115;SDS011;59991;52.140;5.428;2023-01-24T00:37:43;21.10;;;16.17;;
72115;SDS011;59991;52.140;5.428;2023-01-24T00:38:15;18.52;;;15.10;;
72115;SDS011;59991;52.140;5.428;2023-01-24T00:38:46;19.70;;;16.63;;
72115;SDS011;59991;52.140;5.428;2023-01-24T00:39:18;20.58;;;15.77;;
72115;SDS011;59991;52.140;5.428;2023-01-24T00:39:50;18.13;;;15.07;;
72115;SDS011;59991;52.140;5.428;2023-01-24T00:40:21;18.33;;;15.20;;
72115;SDS011;59991;52.140;5.428;2023-01-24T00:40:52;19.45;;;15.98;;
72115;SDS011;59991;52.140;5.428;2023-01-24T00:41:24;19.40;;;15.02;;
72115;SDS011;59991;52.140;5.428;2023-01-24T00:41:55;19.57;;;16.20;;
72115;SDS011;59991;52.140;5.428;2023-01-24T00:42:27;17.20;;;14.63;;
72115;SDS011;59991;52.140;5.428;2023-01-24T00:42:58;16.58;;;13.98;;
72115;SDS011;59991;52.140;5.428;2023-01-24T00:43:32;21.70;;;16.50;;
72115;SDS011;59991;52.140;5.428;2023-01-24T00:44:04;19.63;;;16.60;;
72115;SDS011;59991;52.140;5.428;2023-01-24T00:44:35;17.27;;;14.93;;
72115;SDS011;59991;52.140;5.428;2023-01-24T00:45:07;18.08;;;14.75;;
72115;SDS011;59991;52.140;5.428;2023-01-24T00:45:39;18.40;;;15.30;;
72115;SDS011;59991;52.140;5.428;2023-01-24T00:46:11;20.13;;;15.45;;
72115;SDS011;59991;52.140;5.428;2023-01-24T00:46:42;18.85;;;16.83;;
72115;SDS011;59991;52.140;5.428;2023-01-24T00:47:14;20.70;;;15.57;;
72115;SDS011;59991;52.140;5.428;2023-01-24T00:47:46;19.50;;;15.65;;
72115;SDS011;59991;52.140;5.428;2023-01-24T00:48:17;20.02;;;16.00;;
72115;SDS011;59991;52.140;5.428;2023-01-24T00:48:48;18.00;;;15.70;;
72115;SDS011;59991;52.140;5.428;2023-01-24T00:49:20;21.00;;;15.32;;
72115;SDS011;59991;52.140;5.428;2023-01-24T00:49:52;17.52;;;14.60;;
72115;SDS011;59991;52.140;5.428;2023-01-24T00:50:23;20.27;;;16.10;;
72115;SDS011;59991;52.140;5.428;2023-01-24T00:50:56;20.05;;;16.77;;
72115;SDS011;59991;52.140;5.428;2023-01-24T00:51:28;18.95;;;15.63;;
72115;SDS011;59991;52.140;5.428;2023-01-24T00:51:59;18.73;;;14.95;;
72115;SDS011;59991;52.140;5.428;2023-01-24T00:52:31;18.47;;;15.20;;
72115;SDS011;59991;52.140;5.428;2023-01-24T00:53:02;18.98;;;15.23;;
72115;SDS011;59991;52.140;5.428;2023-01-24T00:53:34;18.83;;;14.35;;
72115;SDS011;59991;52.140;5.428;2023-01-24T00:54:08;18.83;;;15.70;;
72115;SDS011;59991;52.140;5.428;2023-01-24T00:54:39;20.30;;;15.73;;
72115;SDS011;59991;52.140;5.428;2023-01-24T00:55:11;19.52;;;14.88;;
72115;SDS011;59991;52.140;5.428;2023-01-24T00:55:43;18.02;;;15.40;;
72115;SDS011;59991;52.140;5.428;2023-01-24T00:56:15;18.52;;;15.48;;
72115;SDS011;59991;52.140;5.428;2023-01-24T00:56:47;18.80;;;15.85;;
72115;SDS011;59991;52.140;5.428;2023-01-24T00:57:18;19.02;;;15.93;;
72115;SDS011;59991;52.140;5.428;2023-01-24T00:57:50;18.43;;;15.37;;
72115;SDS011;59991;52.140;5.428;2023-01-24T00:58:22;19.77;;;15.60;;
72115;SDS011;59991;52.140;5.428;2023-01-24T00:58:54;19.60;;;15.88;;
72115;SDS011;59991;52.140;5.428;2023-01-24T00:59:25;18.33;;;15.25;;
72115;SDS011;59991;52.140;5.428;2023-01-24T00:59:57;18.17;;;15.35;;
72115;SDS011;59991;52.140;5.428;2023-01-24T01:00:28;19.40;;;15.52;;
72115;SDS011;59991;52.140;5.428;2023-01-24T01:01:00;18.10;;;16.13;;
72115;SDS011;59991;52.140;5.428;2023-01-24T01:01:35;19.58;;;16.00;;
72115;SDS011;59991;52.140;5.428;2023-01-24T01:02:06;20.67;;;16.98;;
72115;SDS011;59991;52.140;5.428;2023-01-24T01:02:38;17.65;;;13.73;;
72115;SDS011;59991;52.140;5.428;2023-01-24T01:03:11;19.17;;;15.07;;
72115;SDS011;59991;52.140;5.428;2023-01-24T01:03:44;18.85;;;14.52;;
72115;SDS011;59991;52.140;5.428;2023-01-24T01:04:16;20.50;;;16.05;;
72115;SDS011;59991;52.140;5.428;2023-01-24T01:04:48;18.00;;;14.43;;
72115;SDS011;59991;52.140;5.428;2023-01-24T01:05:19;19.10;;;16.48;;
72115;SDS011;59991;52.140;5.428;2023-01-24T01:06:25;18.52;;;16.02;;
72115;SDS011;59991;52.140;5.428;2023-01-24T01:06:49;20.23;;;15.23;;
72115;SDS011;59991;52.140;5.428;2023-01-24T01:07:39;17.95;;;15.38;;
72115;SDS011;59991;52.140;5.428;2023-01-24T01:08:10;21.33;;;16.90;;
72115;SDS011;59991;52.140;5.428;2023-01-24T01:08:42;19.45;;;15.38;;
72115;SDS011;59991;52.140;5.428;2023-01-24T01:09:14;17.57;;;14.87;;
72115;SDS011;59991;52.140;5.428;2023-01-24T01:09:45;17.45;;;14.50;;
72115;SDS011;59991;52.140;5.428;2023-01-24T01:10:17;18.50;;;15.73;;
72115;SDS011;59991;52.140;5.428;2023-01-24T01:10:52;19.58;;;17.42;;
72115;SDS011;59991;52.140;5.428;2023-01-24T01:11:23;17.40;;;15.05;;
72115;SDS011;59991;52.140;5.428;2023-01-24T01:11:55;21.30;;;16.10;;
72115;SDS011;59991;52.140;5.428;2023-01-24T01:12:26;15.50;;;13.85;;
72115;SDS011;59991;52.140;5.428;2023-01-24T01:12:58;20.80;;;16.33;;
72115;SDS011;59991;52.140;5.428;2023-01-24T01:13:29;18.25;;;15.77;;
72115;SDS011;59991;52.140;5.428;2023-01-24T01:14:01;17.60;;;14.68;;
72115;SDS011;59991;52.140;5.428;2023-01-24T01:14:33;19.30;;;16.20;;
72115;SDS011;59991;52.140;5.428;2023-01-24T01:15:05;17.77;;;15.25;;
72115;SDS011;59991;52.140;5.428;2023-01-24T01:15:37;19.70;;;15.02;;
72115;SDS011;59991;52.140;5.428;2023-01-24T01:16:15;18.60;;;15.10;;
72115;SDS011;59991;52.140;5.428;2023-01-24T01:16:48;17.50;;;15.55;;
72115;SDS011;59991;52.140;5.428;2023-01-24T01:17:20;18.90;;;15.02;;
72115;SDS011;59991;52.140;5.428;2023-01-24T01:17:52;17.50;;;15.10;;
72115;SDS011;59991;52.140;5.428;2023-01-24T01:18:42;18.25;;;15.43;;
72115;SDS011;59991;52.140;5.428;2023-01-24T01:19:14;17.48;;;15.52;;
72115;SDS011;59991;52.140;5.428;2023-01-24T01:19:45;18.25;;;15.00;;
72115;SDS011;59991;52.140;5.428;2023-01-24T01:20:17;18.43;;;15.00;;
72115;SDS011;59991;52.140;5.428;2023-01-24T01:20:49;18.73;;;15.15;;
72115;SDS011;59991;52.140;5.428;2023-01-24T01:21:22;17.85;;;15.48;;
72115;SDS011;59991;52.140;5.428;2023-01-24T01:21:54;19.75;;;15.88;;
72115;SDS011;59991;52.140;5.428;2023-01-24T01:22:25;20.15;;;14.98;;
72115;SDS011;59991;52.140;5.428;2023-01-24T01:22:57;18.67;;;15.25;;
72115;SDS011;59991;52.140;5.428;2023-01-24T01:23:28;19.55;;;15.80;;
72115;SDS011;59991;52.140;5.428;2023-01-24T01:24:00;18.67;;;14.60;;
72115;SDS011;59991;52.140;5.428;2023-01-24T01:24:32;17.45;;;14.60;;
72115;SDS011;59991;52.140;5.428;2023-01-24T01:25:03;17.27;;;15.00;;
72115;SDS011;59991;52.140;5.428;2023-01-24T01:25:37;19.30;;;14.90;;
72115;SDS011;59991;52.140;5.428;2023-01-24T01:26:13;19.42;;;16.45;;
72115;SDS011;59991;52.140;5.428;2023-01-24T01:27:03;18.48;;;14.93;;
72115;SDS011;59991;52.140;5.428;2023-01-24T01:27:35;19.90;;;15.95;;
72115;SDS011;59991;52.140;5.428;2023-01-24T01:28:06;19.30;;;15.20;;
72115;SDS011;59991;52.140;5.428;2023-01-24T01:28:38;18.10;;;15.20;;
72115;SDS011;59991;52.140;5.428;2023-01-24T01:29:10;20.73;;;16.25;;
72115;SDS011;59991;52.140;5.428;2023-01-24T01:29:41;18.50;;;15.07;;
72115;SDS011;59991;52.140;5.428;2023-01-24T01:30:13;19.65;;;16.10;;
72115;SDS011;59991;52.140;5.428;2023-01-24T01:30:48;19.80;;;15.23;;
72115;SDS011;59991;52.140;5.428;2023-01-24T01:31:23;20.53;;;15.90;;
72115;SDS011;59991;52.140;5.428;2023-01-24T01:31:54;19.13;;;14.85;;
72115;SDS011;59991;52.140;5.428;2023-01-24T01:32:26;20.40;;;15.98;;
72115;SDS011;59991;52.140;5.428;2023-01-24T01:32:57;17.63;;;15.60;;
72115;SDS011;59991;52.140;5.428;2023-01-24T01:33:29;17.25;;;14.65;;
72115;SDS011;59991;52.140;5.428;2023-01-24T01:34:03;18.60;;;16.00;;
72115;SDS011;59991;52.140;5.428;2023-01-24T01:34:35;20.83;;;16.60;;
72115;SDS011;59991;52.140;5.428;2023-01-24T01:35:07;20.30;;;15.88;;
72115;SDS011;59991;52.140;5.428;2023-01-24T01:35:39;20.17;;;16.40;;
72115;SDS011;59991;52.140;5.428;2023-01-24T01:36:11;18.52;;;16.58;;
72115;SDS011;59991;52.140;5.428;2023-01-24T01:36:43;19.63;;;16.80;;
72115;SDS011;59991;52.140;5.428;2023-01-24T01:37:14;16.83;;;14.20;;
72115;SDS011;59991;52.140;5.428;2023-01-24T01:37:46;17.15;;;15.32;;
72115;SDS011;59991;52.140;5.428;2023-01-24T01:38:18;18.05;;;14.63;;
72115;SDS011;59991;52.140;5.428;2023-01-24T01:38:50;16.73;;;14.80;;
72115;SDS011;59991;52.140;5.428;2023-01-24T01:39:21;16.77;;;13.68;;
72115;SDS011;59991;52.140;5.428;2023-01-24T01:39:53;17.75;;;14.57;;
72115;SDS011;59991;52.140;5.428;2023-01-24T01:40:25;17.55;;;13.82;;
72115;SDS011;59991;52.140;5.428;2023-01-24T01:40:56;16.48;;;14.23;;
72115;SDS011;59991;52.140;5.428;2023-01-24T01:41:28;16.70;;;13.43;;
72115;SDS011;59991;52.140;5.428;2023-01-24T01:42:00;16.63;;;12.93;;
72115;SDS011;59991;52.140;5.428;2023-01-24T01:43:19;16.27;;;13.32;;
72115;SDS011;59991;52.140;5.428;2023-01-24T01:46:41;15.10;;;11.80;;
72115;SDS011;59991;52.140;5.428;2023-01-24T01:47:28;14.88;;;11.88;;
72115;SDS011;59991;52.140;5.428;2023-01-24T01:48:05;15.30;;;12.20;;
72115;SDS011;59991;52.140;5.428;2023-01-24T01:48:45;15.85;;;13.43;;
72115;SDS011;59991;52.140;5.428;2023-01-24T01:49:21;15.88;;;12.05;;
72115;SDS011;59991;52.140;5.428;2023-01-24T01:50:43;16.50;;;13.20;;
72115;SDS011;59991;52.140;5.428;2023-01-24T01:51:21;17.48;;;13.27;;
72115;SDS011;59991;52.140;5.428;2023-01-24T01:51:58;14.98;;;13.38;;
72115;SDS011;59991;52.140;5.428;2023-01-24T01:52:37;16.88;;;14.73;;
72115;SDS011;59991;52.140;5.428;2023-01-24T01:53:11;15.90;;;13.00;;
72115;SDS011;59991;52.140;5.428;2023-01-24T01:53:47;16.35;;;12.77;;
72115;SDS011;59991;52.140;5.428;2023-01-24T01:54:31;15.98;;;12.10;;
72115;SDS011;59991;52.140;5.428;2023-01-24T01:55:10;14.65;;;12.55;;
72115;SDS011;59991;52.140;5.428;2023-01-24T01:55:47;16.88;;;12.82;;
72115;SDS011;59991;52.140;5.428;2023-01-24T01:56:43;14.17;;;12.70;;
72115;SDS011;59991;52.140;5.428;2023-01-24T01:57:16;16.30;;;12.68;;
72115;SDS011;59991;52.140;5.428;2023-01-24T01:57:53;13.32;;;11.70;;
72115;SDS011;59991;52.140;5.428;2023-01-24T01:58:25;15.43;;;13.43;;
72115;SDS011;59991;52.140;5.428;2023-01-24T01:58:59;16.63;;;12.43;;
72115;SDS011;59991;52.140;5.428;2023-01-24T01:59:40;16.05;;;12.32;;
72115;SDS011;59991;52.140;5.428;2023-01-24T02:00:21;16.50;;;13.32;;
72115;SDS011;59991;52.140;5.428;2023-01-24T02:00:56;16.30;;;12.02;;
72115;SDS011;59991;52.140;5.428;2023-01-24T02:01:27;16.23;;;13.63;;
72115;SDS011;59991;52.140;5.428;2023-01-24T02:01:59;19.17;;;15.43;;
72115;SDS011;59991;52.140;5.428;2023-01-24T02:02:33;16.10;;;13.20;;
72115;SDS011;59991;52.140;5.428;2023-01-24T02:03:10;18.33;;;13.93;;
72115;SDS011;59991;52.140;5.428;2023-01-24T02:04:06;15.30;;;12.48;;
72115;SDS011;59991;52.140;5.428;2023-01-24T02:04:41;14.27;;;12.40;;
72115;SDS011;59991;52.140;5.428;2023-01-24T02:05:20;16.38;;;14.20;;
72115;SDS011;59991;52.140;5.428;2023-01-24T02:05:55;15.15;;;11.68;;
72115;SDS011;59991;52.140;5.428;2023-01-24T02:06:29;16.67;;;12.70;;
72115;SDS011;59991;52.140;5.428;2023-01-24T02:07:04;14.35;;;11.85;;
72115;SDS011;59991;52.140;5.428;2023-01-24T02:08:31;16.00;;;12.77;;
72115;SDS011;59991;52.140;5.428;2023-01-24T02:09:04;17.13;;;14.23;;
72115;SDS011;59991;52.140;5.428;2023-01-24T02:09:42;15.70;;;13.35;;
72115;SDS011;59991;52.140;5.428;2023-01-24T02:10:17;22.00;;;13.00;;
72115;SDS011;59991;52.140;5.428;2023-01-24T02:10:50;15.63;;;13.02;;
72115;SDS011;59991;52.140;5.428;2023-01-24T02:11:41;14.75;;;13.10;;
72115;SDS011;59991;52.140;5.428;2023-01-24T02:12:21;16.50;;;12.68;;
72115;SDS011;59991;52.140;5.428;2023-01-24T02:12:55;15.57;;;11.98;;
72115;SDS011;59991;52.140;5.428;2023-01-24T02:13:27;16.20;;;12.73;;
72115;SDS011;59991;52.140;5.428;2023-01-24T02:13:59;17.15;;;13.75;;
72115;SDS011;59991;52.140;5.428;2023-01-24T02:15:08;16.88;;;12.95;;
72115;SDS011;59991;52.140;5.428;2023-01-24T02:16:01;16.57;;;12.57;;
72115;SDS011;59991;52.140;5.428;2023-01-24T02:16:35;16.02;;;12.18;;
72115;SDS011;59991;52.140;5.428;2023-01-24T02:17:07;16.67;;;13.35;;
72115;SDS011;59991;52.140;5.428;2023-01-24T02:17:39;17.75;;;14.10;;
72115;SDS011;59991;52.140;5.428;2023-01-24T02:18:11;17.92;;;14.73;;
72115;SDS011;59991;52.140;5.428;2023-01-24T02:18:43;16.80;;;13.73;;
72115;SDS011;59991;52.140;5.428;2023-01-24T02:19:31;15.43;;;13.70;;
72115;SDS011;59991;52.140;5.428;2023-01-24T02:21:14;14.65;;;12.45;;
72115;SDS011;59991;52.140;5.428;2023-01-24T02:21:47;16.15;;;12.82;;
72115;SDS011;59991;52.140;5.428;2023-01-24T02:22:39;19.37;;;13.40;;
72115;SDS011;59991;52.140;5.428;2023-01-24T02:24:25;13.98;;;11.80;;
72115;SDS011;59991;52.140;5.428;2023-01-24T02:25:08;18.40;;;14.13;;
72115;SDS011;59991;52.140;5.428;2023-01-24T02:26:30;16.08;;;12.27;;
72115;SDS011;59991;52.140;5.428;2023-01-24T02:27:02;15.45;;;13.27;;
72115;SDS011;59991;52.140;5.428;2023-01-24T02:27:34;17.05;;;13.48;;
72115;SDS011;59991;52.140;5.428;2023-01-24T02:28:06;16.38;;;13.93;;
72115;SDS011;59991;52.140;5.428;2023-01-24T02:29:05;15.65;;;13.10;;
72115;SDS011;59991;52.140;5.428;2023-01-24T02:29:38;17.83;;;13.93;;
72115;SDS011;59991;52.140;5.428;2023-01-24T02:30:09;17.33;;;15.13;;
72115;SDS011;59991;52.140;5.428;2023-01-24T02:30:41;18.63;;;14.65;;
72115;SDS011;59991;52.140;5.428;2023-01-24T02:31:13;16.75;;;14.07;;
72115;SDS011;59991;52.140;5.428;2023-01-24T02:31:58;17.63;;;15.27;;
72115;SDS011;59991;52.140;5.428;2023-01-24T02:32:31;17.38;;;13.55;;
72115;SDS011;59991;52.140;5.428;2023-01-24T02:33:12;15.80;;;13.32;;
72115;SDS011;59991;52.140;5.428;2023-01-24T02:33:46;19.02;;;14.52;;
72115;SDS011;59991;52.140;5.428;2023-01-24T02:34:18;18.40;;;14.90;;
72115;SDS011;59991;52.140;5.428;2023-01-24T02:34:49;18.50;;;14.05;;
72115;SDS011;59991;52.140;5.428;2023-01-24T02:35:31;19.00;;;14.53;;
72115;SDS011;59991;52.140;5.428;2023-01-24T02:36:59;18.25;;;13.68;;
72115;SDS011;59991;52.140;5.428;2023-01-24T02:37:32;17.85;;;13.88;;
72115;SDS011;59991;52.140;5.428;2023-01-24T02:38:07;17.70;;;14.52;;
72115;SDS011;59991;52.140;5.428;2023-01-24T02:39:10;15.90;;;14.15;;
72115;SDS011;59991;52.140;5.428;2023-01-24T02:39:48;17.08;;;13.93;;
72115;SDS011;59991;52.140;5.428;2023-01-24T02:40:31;14.98;;;11.95;;
72115;SDS011;59991;52.140;5.428;2023-01-24T02:41:03;20.33;;;14.38;;
72115;SDS011;59991;52.140;5.428;2023-01-24T02:41:41;19.08;;;14.85;;
72115;SDS011;59991;52.140;5.428;2023-01-24T02:42:20;16.90;;;13.87;;
72115;SDS011;59991;52.140;5.428;2023-01-24T02:42:55;18.60;;;14.52;;
72115;SDS011;59991;52.140;5.428;2023-01-24T02:43:31;17.67;;;14.45;;
72115;SDS011;59991;52.140;5.428;2023-01-24T02:44:09;16.02;;;13.30;;
72115;SDS011;59991;52.140;5.428;2023-01-24T02:45:30;18.55;;;15.20;;
72115;SDS011;59991;52.140;5.428;2023-01-24T02:46:05;19.45;;;14.48;;
72115;SDS011;59991;52.140;5.428;2023-01-24T02:46:36;19.48;;;16.55;;
72115;SDS011;59991;52.140;5.428;2023-01-24T02:47:08;16.23;;;13.75;;
72115;SDS011;59991;52.140;5.428;2023-01-24T02:47:40;18.90;;;15.88;;
72115;SDS011;59991;52.140;5.428;2023-01-24T02:48:18;17.87;;;15.40;;
72115;SDS011;59991;52.140;5.428;2023-01-24T02:48:50;16.40;;;13.30;;
72115;SDS011;59991;52.140;5.428;2023-01-24T02:49:22;19.83;;;15.85;;
72115;SDS011;59991;52.140;5.428;2023-01-24T02:49:54;17.13;;;14.90;;
72115;SDS011;59991;52.140;5.428;2023-01-24T02:50:26;19.60;;;15.77;;
72115;SDS011;59991;52.140;5.428;2023-01-24T02:51:20;14.85;;;12.57;;
72115;SDS011;59991;52.140;5.428;2023-01-24T02:52:10;17.30;;;13.57;;
72115;SDS011;59991;52.140;5.428;2023-01-24T02:53:00;17.42;;;14.55;;
72115;SDS011;59991;52.140;5.428;2023-01-24T02:53:51;16.30;;;14.15;;
72115;SDS011;59991;52.140;5.428;2023-01-24T02:54:23;17.77;;;13.02;;
72115;SDS011;59991;52.140;5.428;2023-01-24T02:54:54;18.23;;;14.47;;
72115;SDS011;59991;52.140;5.428;2023-01-24T02:55:26;18.20;;;14.90;;
72115;SDS011;59991;52.140;5.428;2023-01-24T02:55:59;19.35;;;16.42;;
72115;SDS011;59991;52.140;5.428;2023-01-24T02:56:53;19.73;;;14.45;;
72115;SDS011;59991;52.140;5.428;2023-01-24T02:57:43;16.45;;;13.32;;
72115;SDS011;59991;52.140;5.428;2023-01-24T02:58:33;17.95;;;14.63;;
72115;SDS011;59991;52.140;5.428;2023-01-24T02:59:05;17.20;;;14.90;;
72115;SDS011;59991;52.140;5.428;2023-01-24T02:59:36;20.23;;;15.93;;
72115;SDS011;59991;52.140;5.428;2023-01-24T03:00:08;18.98;;;15.73;;
72115;SDS011;59991;52.140;5.428;2023-01-24T03:00:42;19.13;;;16.10;;
72115;SDS011;59991;52.140;5.428;2023-01-24T03:01:14;19.93;;;16.17;;
72115;SDS011;59991;52.140;5.428;2023-01-24T03:01:46;21.92;;;15.68;;
72115;SDS011;59991;52.140;5.428;2023-01-24T03:02:18;19.75;;;15.70;;
72115;SDS011;59991;52.140;5.428;2023-01-24T03:02:49;17.92;;;15.63;;
72115;SDS011;59991;52.140;5.428;2023-01-24T03:03:21;20.17;;;15.68;;
72115;SDS011;59991;52.140;5.428;2023-01-24T03:03:53;18.63;;;16.60;;
72115;SDS011;59991;52.140;5.428;2023-01-24T03:04:26;20.20;;;16.08;;
72115;SDS011;59991;52.140;5.428;2023-01-24T03:04:58;17.20;;;14.60;;
72115;SDS011;59991;52.140;5.428;2023-01-24T03:05:30;19.27;;;15.80;;
72115;SDS011;59991;52.140;5.428;2023-01-24T03:06:22;19.02;;;14.75;;
72115;SDS011;59991;52.140;5.428;2023-01-24T03:06:54;20.30;;;15.60;;
72115;SDS011;59991;52.140;5.428;2023-01-24T03:07:25;18.75;;;15.10;;
72115;SDS011;59991;52.140;5.428;2023-01-24T03:07:57;20.95;;;15.40;;
72115;SDS011;59991;52.140;5.428;2023-01-24T03:08:30;20.83;;;16.63;;
72115;SDS011;59991;52.140;5.428;2023-01-24T03:09:03;20.77;;;16.92;;
72115;SDS011;59991;52.140;5.428;2023-01-24T03:09:49;18.85;;;15.20;;
72115;SDS011;59991;52.140;5.428;2023-01-24T03:10:21;20.17;;;15.85;;
72115;SDS011;59991;52.140;5.428;2023-01-24T03:10:52;19.67;;;15.38;;
72115;SDS011;59991;52.140;5.428;2023-01-24T03:11:24;19.10;;;16.10;;
72115;SDS011;59991;52.140;5.428;2023-01-24T03:11:56;18.83;;;14.52;;
72115;SDS011;59991;52.140;5.428;2023-01-24T03:12:46;19.37;;;15.63;;
72115;SDS011;59991;52.140;5.428;2023-01-24T03:13:36;17.27;;;13.60;;
72115;SDS011;59991;52.140;5.428;2023-01-24T03:14:26;19.15;;;14.88;;
72115;SDS011;59991;52.140;5.428;2023-01-24T03:15:16;20.13;;;14.02;;
72115;SDS011;59991;52.140;5.428;2023-01-24T03:16:06;18.42;;;15.05;;
72115;SDS011;59991;52.140;5.428;2023-01-24T03:16:56;18.98;;;14.05;;
72115;SDS011;59991;52.140;5.428;2023-01-24T03:17:46;18.13;;;14.10;;
72115;SDS011;59991;52.140;5.428;2023-01-24T03:18:36;21.27;;;15.40;;
72115;SDS011;59991;52.140;5.428;2023-01-24T03:19:26;16.60;;;13.93;;
72115;SDS011;59991;52.140;5.428;2023-01-24T03:20:16;17.67;;;13.43;;
72115;SDS011;59991;52.140;5.428;2023-01-24T03:21:06;17.93;;;13.63;;
72115;SDS011;59991;52.140;5.428;2023-01-24T03:21:56;17.27;;;13.25;;
72115;SDS011;59991;52.140;5.428;2023-01-24T03:22:46;16.98;;;13.70;;
72115;SDS011;59991;52.140;5.428;2023-01-24T03:23:40;17.17;;;14.48;;
72115;SDS011;59991;52.140;5.428;2023-01-24T03:24:31;17.10;;;13.85;;
72115;SDS011;59991;52.140;5.428;2023-01-24T03:25:22;17.05;;;12.27;;
72115;SDS011;59991;52.140;5.428;2023-01-24T03:26:11;17.58;;;13.52;;
72115;SDS011;59991;52.140;5.428;2023-01-24T03:27:01;16.88;;;14.05;;
72115;SDS011;59991;52.140;5.428;2023-01-24T03:27:51;16.30;;;12.48;;
72115;SDS011;59991;52.140;5.428;2023-01-24T03:28:41;19.02;;;13.93;;
72115;SDS011;59991;52.140;5.428;2023-01-24T03:29:32;18.40;;;13.73;;
72115;SDS011;59991;52.140;5.428;2023-01-24T03:30:22;16.38;;;12.90;;
72115;SDS011;59991;52.140;5.428;2023-01-24T03:31:12;16.48;;;12.38;;
72115;SDS011;59991;52.140;5.428;2023-01-24T03:32:01;15.73;;;13.63;;
72115;SDS011;59991;52.140;5.428;2023-01-24T03:32:52;15.73;;;13.35;;
72115;SDS011;59991;52.140;5.428;2023-01-24T03:33:48;15.77;;;13.45;;
72115;SDS011;59991;52.140;5.428;2023-01-24T03:34:38;17.15;;;12.13;;
72115;SDS011;59991;52.140;5.428;2023-01-24T03:35:28;15.57;;;12.40;;
72115;SDS011;59991;52.140;5.428;2023-01-24T03:36:00;17.98;;;13.70;;
72115;SDS011;59991;52.140;5.428;2023-01-24T03:36:32;17.33;;;13.98;;
72115;SDS011;59991;52.140;5.428;2023-01-24T03:37:04;19.73;;;14.00;;
72115;SDS011;59991;52.140;5.428;2023-01-24T03:37:36;16.38;;;12.80;;
72115;SDS011;59991;52.140;5.428;2023-01-24T03:38:26;15.60;;;13.23;;
72115;SDS011;59991;52.140;5.428;2023-01-24T03:39:16;15.35;;;12.98;;